aviador You're here:

LFOK Decoded Metar

CHALONS in FRANCE
Report Time2017-08-21 23:30:00
UTC Time2017-08-21 23:54:14
Flight Rules vfr VFR
Wind070° at 06 kt
W.Decomp.*RWY 10: 5.2 kt HW 3 kt LCW
W.Rank070° ranks 26
Current wind is below 070° avg. (6.7)
Visibility9999 m
Phenomena:N/A
Clouds:Broken 031 Hf
Broken 054 Hf
Expected CloudBase > 1,600 ft AGL from Temp-Dew spread
Ceiling3,100 ft
Temp17°C (ISA +3)
Dew Point13°C (77% RH)
AAT15.8°C
QNH1021 hPa
Density Alt823 ft
Elevation531 ft
Report Wrong Elevation
Raw Report
LFOK 212330Z AUTO 07006KT 9999 BKN031 BKN054 17/13 Q1021 NOSIG=

Extra information for LFOK:More info

Metar Taf Metar & Taf Last 4 Metars F.Rules Stats Wind Profile Meteogram Temp Stats Airport Information Weather charts Add Link Nearby VenuesMetar ALERT Operation Metar Decoded Social comments